createdAt,value
2024-01-15T00:01:03.154Z,-2.60
2024-01-15T00:03:29.866Z,-2.70
2024-01-15T00:05:56.665Z,-2.80
2024-01-15T00:08:23.491Z,-2.70
2024-01-15T00:10:50.167Z,-2.70
2024-01-15T00:13:16.819Z,-2.90
2024-01-15T00:15:43.595Z,-2.60
2024-01-15T00:18:10.363Z,-2.60
2024-01-15T00:20:37.113Z,-2.60
2024-01-15T00:23:03.877Z,-2.80
2024-01-15T00:25:30.492Z,-2.90
2024-01-15T00:27:57.129Z,-2.60
2024-01-15T00:30:23.862Z,-2.50
2024-01-15T00:32:50.702Z,-2.50
2024-01-15T00:35:17.437Z,-2.70
2024-01-15T00:37:44.092Z,-3.10
2024-01-15T00:40:10.689Z,-3.20
2024-01-15T00:42:37.391Z,-2.90
2024-01-15T00:45:04.114Z,-3.10
2024-01-15T00:47:30.852Z,-3.10
2024-01-15T00:49:57.530Z,-3.10
2024-01-15T00:52:24.216Z,-3.00
2024-01-15T00:54:50.928Z,-2.80
2024-01-15T00:57:17.637Z,-2.90
2024-01-15T00:59:44.357Z,-3.10
2024-01-15T01:02:10.976Z,-3.20
2024-01-15T01:04:37.608Z,-3.20
2024-01-15T01:07:04.296Z,-3.00
2024-01-15T01:09:30.981Z,-3.00
2024-01-15T01:11:57.627Z,-3.00
2024-01-15T01:14:24.359Z,-3.10
2024-01-15T01:16:50.968Z,-3.00
2024-01-15T01:19:17.870Z,-3.20
2024-01-15T01:21:44.758Z,-3.60
2024-01-15T01:24:11.506Z,-3.40
2024-01-15T01:26:38.148Z,-3.20
2024-01-15T01:29:06.487Z,-3.10
2024-01-15T01:31:33.156Z,-3.30
2024-01-15T01:34:00.011Z,-3.00
2024-01-15T01:36:26.786Z,-3.00
2024-01-15T01:38:53.440Z,-3.50
2024-01-15T01:41:20.055Z,-3.50
2024-01-15T01:43:46.745Z,-3.30
2024-01-15T01:46:13.410Z,-3.10
2024-01-15T01:48:40.242Z,-3.20
2024-01-15T01:51:07.018Z,-3.10
2024-01-15T01:53:33.634Z,-2.80
2024-01-15T01:56:00.248Z,-3.00
2024-01-15T01:58:27.028Z,-2.90
2024-01-15T02:00:53.790Z,-2.80
2024-01-15T02:03:20.466Z,-2.80
2024-01-15T02:05:47.323Z,-2.80
2024-01-15T02:08:13.965Z,-3.20
2024-01-15T02:10:40.616Z,-3.20
2024-01-15T02:13:07.305Z,-3.30
2024-01-15T02:15:33.944Z,-3.30
2024-01-15T02:18:00.723Z,-3.00
2024-01-15T02:20:27.474Z,-3.20
2024-01-15T02:22:54.115Z,-3.10
2024-01-15T02:25:20.737Z,-3.00
2024-01-15T02:27:47.430Z,-3.50
2024-01-15T02:30:14.264Z,-3.50
2024-01-15T02:32:41.020Z,-3.40
2024-01-15T02:35:07.822Z,-3.20
2024-01-15T02:37:34.465Z,-3.30
2024-01-15T02:40:01.140Z,-3.20
2024-01-15T02:42:27.957Z,-3.10
2024-01-15T02:44:54.615Z,-3.60
2024-01-15T02:47:21.264Z,-3.80
2024-01-15T02:49:48.048Z,-3.50
2024-01-15T02:52:14.760Z,-3.50
2024-01-15T02:54:41.499Z,-3.20
2024-01-15T02:57:10.714Z,-2.90
2024-01-15T02:59:37.374Z,-2.80
2024-01-15T03:02:03.994Z,-2.50
2024-01-15T03:04:30.739Z,-2.70
2024-01-15T03:06:57.435Z,-3.00
2024-01-15T03:09:24.104Z,-2.90
2024-01-15T03:11:50.783Z,-2.80
2024-01-15T03:14:17.418Z,-3.00
2024-01-15T03:16:44.046Z,-2.80
2024-01-15T03:19:10.779Z,-2.60
2024-01-15T03:21:37.537Z,-2.60
2024-01-15T03:24:04.227Z,-2.30
2024-01-15T03:26:30.909Z,-2.30
2024-01-15T03:28:57.510Z,-2.30
2024-01-15T03:31:24.264Z,-2.20
2024-01-15T03:33:51.106Z,-2.30
2024-01-15T03:36:17.785Z,-2.50
2024-01-15T03:38:44.441Z,-2.60
2024-01-15T03:41:11.146Z,-2.90
2024-01-15T03:43:37.758Z,-3.20
2024-01-15T03:46:04.412Z,-3.10
2024-01-15T03:48:31.286Z,-2.90
2024-01-15T03:50:57.977Z,-2.80
2024-01-15T03:53:24.606Z,-2.80
2024-01-15T03:55:51.463Z,-2.70
2024-01-15T03:58:18.091Z,-2.40
2024-01-15T04:00:44.830Z,-2.10
2024-01-15T04:03:11.564Z,-2.30
2024-01-15T04:05:38.320Z,-2.40
2024-01-15T04:08:04.985Z,-2.40
2024-01-15T04:10:31.757Z,-2.30
2024-01-15T04:12:58.451Z,-2.30
2024-01-15T04:15:25.119Z,-2.30
2024-01-15T04:17:53.758Z,-2.50
2024-01-15T04:20:22.913Z,-2.50
2024-01-15T04:22:50.372Z,-2.40
2024-01-15T04:25:17.066Z,-2.20
2024-01-15T04:27:43.737Z,-2.10
2024-01-15T04:30:10.493Z,-2.00
2024-01-15T04:32:37.266Z,-1.90
2024-01-15T04:35:03.970Z,-1.70
2024-01-15T04:37:30.599Z,-1.60
2024-01-15T04:39:57.339Z,-1.70
2024-01-15T04:42:24.008Z,-2.00
2024-01-15T04:44:51.084Z,-2.00
2024-01-15T04:47:17.776Z,-1.80
2024-01-15T04:49:44.436Z,-1.80
2024-01-15T04:52:11.105Z,-1.80
2024-01-15T04:54:37.863Z,-1.90
2024-01-15T04:57:04.513Z,-1.70
2024-01-15T04:59:31.137Z,-2.20
2024-01-15T05:01:57.817Z,-2.40
2024-01-15T05:04:24.472Z,-2.20
2024-01-15T05:06:51.242Z,-1.90
2024-01-15T05:09:18.009Z,-1.90
2024-01-15T05:11:44.633Z,-1.90
2024-01-15T05:14:11.287Z,-1.70
2024-01-15T05:16:37.957Z,-1.50
2024-01-15T05:19:04.691Z,-1.40
2024-01-15T05:21:31.422Z,-1.60
2024-01-15T05:23:58.121Z,-1.60
2024-01-15T05:26:24.746Z,-1.60
2024-01-15T05:28:51.392Z,-1.40
2024-01-15T05:31:18.187Z,-1.70
2024-01-15T05:33:44.931Z,-1.70
2024-01-15T05:36:11.623Z,-1.80
2024-01-15T05:38:38.319Z,-1.60
2024-01-15T05:41:04.938Z,-1.50
2024-01-15T05:43:31.565Z,-1.60
2024-01-15T05:45:58.458Z,-1.50
2024-01-15T05:48:25.314Z,-1.70
2024-01-15T05:50:52.014Z,-1.60
2024-01-15T05:53:18.707Z,-1.60
2024-01-15T05:55:45.317Z,-1.70
2024-01-15T05:58:11.936Z,-1.90
2024-01-15T06:00:38.690Z,-2.00
2024-01-15T06:03:05.355Z,-2.00
2024-01-15T06:05:32.004Z,-1.90
2024-01-15T06:07:58.736Z,-1.80
2024-01-15T06:10:25.378Z,-1.70
2024-01-15T06:12:52.100Z,-1.80
2024-01-15T06:15:18.854Z,-1.90
2024-01-15T06:17:45.587Z,-2.10
2024-01-15T06:20:12.300Z,-2.10
2024-01-15T06:22:39.004Z,-2.30
2024-01-15T06:25:05.652Z,-2.40
2024-01-15T06:27:32.318Z,-2.50
2024-01-15T06:29:59.041Z,-2.40
2024-01-15T06:32:25.933Z,-2.50
2024-01-15T06:34:52.723Z,-2.50
2024-01-15T06:37:19.432Z,-2.40
2024-01-15T06:39:46.134Z,-2.30
2024-01-15T06:42:12.959Z,-2.30
2024-01-15T06:44:39.647Z,-2.30
2024-01-15T06:47:06.263Z,-2.40
2024-01-15T06:49:32.980Z,-2.30
2024-01-15T06:51:59.875Z,-2.20
2024-01-15T06:54:26.558Z,-2.60
2024-01-15T06:56:53.188Z,-2.40
2024-01-15T06:59:20.528Z,-2.20
2024-01-15T07:01:47.322Z,-2.30
2024-01-15T07:04:14.022Z,-2.40
2024-01-15T07:06:40.779Z,-2.40
2024-01-15T07:09:07.422Z,-2.70
2024-01-15T07:11:34.082Z,-2.50
2024-01-15T07:14:00.776Z,-2.20
2024-01-15T07:16:36.531Z,-2.20
2024-01-15T07:19:05.003Z,-2.40
2024-01-15T07:21:31.771Z,-2.20
2024-01-15T07:23:58.419Z,-2.20
2024-01-15T07:26:25.119Z,-2.30
2024-01-15T07:28:51.762Z,-2.30
2024-01-15T07:31:18.466Z,-2.30
2024-01-15T07:33:45.261Z,-2.40
2024-01-15T07:36:11.974Z,-2.20
2024-01-15T07:38:38.624Z,-1.90
2024-01-15T07:41:05.293Z,-1.80
2024-01-15T07:43:31.952Z,-1.80
2024-01-15T07:45:58.652Z,-2.10
2024-01-15T07:48:25.666Z,-2.10
2024-01-15T07:50:52.416Z,-1.80
2024-01-15T07:53:19.076Z,-1.80
2024-01-15T07:55:45.744Z,-1.40
2024-01-15T07:58:16.381Z,-1.70
2024-01-15T08:00:44.048Z,-1.40
2024-01-15T08:03:10.951Z,-1.50
2024-01-15T08:05:37.611Z,-1.50
2024-01-15T08:08:04.249Z,-1.50
2024-01-15T08:10:30.924Z,-1.40
2024-01-15T08:12:57.615Z,-1.40
2024-01-15T08:15:25.048Z,-1.40
2024-01-15T08:17:52.689Z,-1.20
2024-01-15T08:20:19.459Z,-1.50
2024-01-15T08:22:46.139Z,-1.40
2024-01-15T08:25:12.796Z,-1.20
2024-01-15T08:27:39.502Z,-1.10
2024-01-15T08:30:06.147Z,-0.80
2024-01-15T08:32:32.859Z,-0.90
2024-01-15T08:34:59.716Z,-0.80
2024-01-15T08:37:26.467Z,-0.80
2024-01-15T08:39:53.158Z,-0.60
2024-01-15T08:42:19.884Z,-0.60
2024-01-15T08:44:46.513Z,-0.40
2024-01-15T08:47:15.332Z,-0.20
2024-01-15T08:49:42.231Z,-0.30
2024-01-15T08:52:08.888Z,-0.30
2024-01-15T08:54:35.565Z,-0.10
2024-01-15T08:57:02.200Z,0.00
2024-01-15T08:59:28.845Z,0.20
2024-01-15T09:01:55.615Z,0.40
2024-01-15T09:04:22.368Z,0.40
2024-01-15T09:06:49.101Z,0.20
2024-01-15T09:09:15.975Z,0.20
2024-01-15T09:11:42.691Z,0.30
2024-01-15T09:14:09.340Z,0.60
2024-01-15T09:16:36.072Z,0.30
2024-01-15T09:19:02.782Z,0.20
2024-01-15T09:21:29.481Z,0.20
2024-01-15T09:23:56.246Z,0.40
2024-01-15T09:26:22.902Z,0.50
2024-01-15T09:28:49.547Z,0.80
2024-01-15T09:31:16.324Z,1.10
2024-01-15T09:33:43.093Z,1.40
2024-01-15T09:36:09.869Z,1.50
2024-01-15T09:38:36.590Z,1.70
2024-01-15T09:41:03.210Z,1.90
2024-01-15T09:43:29.821Z,2.20
2024-01-15T09:45:56.588Z,2.40
2024-01-15T09:48:23.409Z,2.20
2024-01-15T09:50:50.092Z,2.20
2024-01-15T09:53:16.745Z,2.50
2024-01-15T09:55:43.378Z,2.70
2024-01-15T09:58:09.984Z,3.00
2024-01-15T10:00:36.736Z,3.10
2024-01-15T10:03:03.422Z,3.30
2024-01-15T10:05:30.053Z,3.40
2024-01-15T10:07:57.018Z,3.70
2024-01-15T10:10:23.730Z,3.80
2024-01-15T10:12:50.413Z,4.00
2024-01-15T10:15:17.175Z,4.00
2024-01-15T10:17:43.862Z,4.00
2024-01-15T10:20:10.629Z,4.20
2024-01-15T10:22:37.325Z,4.30
2024-01-15T10:25:04.054Z,4.40
2024-01-15T10:27:30.753Z,4.50
2024-01-15T10:29:57.470Z,4.60
2024-01-15T10:32:24.176Z,4.60
2024-01-15T10:34:50.895Z,4.70
2024-01-15T10:37:17.593Z,5.00
2024-01-15T10:39:44.237Z,5.40
2024-01-15T10:42:10.929Z,5.60
2024-01-15T10:44:37.624Z,5.50
2024-01-15T10:47:04.296Z,5.70
2024-01-15T10:49:33.007Z,5.80
2024-01-15T10:52:00.798Z,6.10
2024-01-15T10:54:27.512Z,6.20
2024-01-15T10:56:54.180Z,6.20
2024-01-15T10:59:20.843Z,5.90
2024-01-15T11:01:47.575Z,6.00
2024-01-15T11:04:14.385Z,6.20
2024-01-15T11:06:41.184Z,6.40
2024-01-15T11:09:07.852Z,6.70
2024-01-15T11:11:34.486Z,6.80
2024-01-15T11:14:01.181Z,6.40
2024-01-15T11:16:27.809Z,6.50
2024-01-15T11:18:54.545Z,6.80
2024-01-15T11:21:21.342Z,6.40
2024-01-15T11:23:51.374Z,6.30
2024-01-15T11:26:20.542Z,6.40
2024-01-15T11:28:47.237Z,6.50
2024-01-15T11:31:13.919Z,6.50
2024-01-15T11:33:40.697Z,6.40
2024-01-15T11:36:07.503Z,6.40
2024-01-15T11:38:34.180Z,6.90
2024-01-15T11:41:00.816Z,6.80
2024-01-15T11:43:27.513Z,6.70
2024-01-15T11:45:54.318Z,6.70
2024-01-15T11:48:21.061Z,6.60
2024-01-15T11:50:47.764Z,6.60
2024-01-15T11:53:14.405Z,6.70
2024-01-15T11:55:41.034Z,6.70
2024-01-15T11:58:07.716Z,6.90
2024-01-15T12:00:34.338Z,7.10
2024-01-15T12:03:00.999Z,7.30
2024-01-15T12:05:27.661Z,7.40
2024-01-15T12:07:54.375Z,7.20
2024-01-15T12:10:20.989Z,6.80
2024-01-15T12:12:47.741Z,6.90
2024-01-15T12:15:14.417Z,7.30
2024-01-15T12:17:41.091Z,7.20
2024-01-15T12:20:07.814Z,7.20
2024-01-15T12:22:48.276Z,7.10
2024-01-15T12:25:20.419Z,7.50
2024-01-15T12:27:47.154Z,7.80
2024-01-15T12:30:13.918Z,7.80
2024-01-15T12:32:40.612Z,7.80
2024-01-15T12:35:07.239Z,7.30
2024-01-15T12:37:33.974Z,7.50
2024-01-15T12:40:00.687Z,7.20
2024-01-15T12:42:27.381Z,7.10
2024-01-15T12:44:54.016Z,7.30
2024-01-15T12:47:20.723Z,6.90
2024-01-15T12:49:47.460Z,7.50
2024-01-15T12:52:14.114Z,7.20
2024-01-15T12:54:40.819Z,7.60
2024-01-15T12:57:07.444Z,7.80
2024-01-15T12:59:34.096Z,8.10
2024-01-15T13:02:00.780Z,8.30
2024-01-15T13:04:27.572Z,8.60
2024-01-15T13:06:54.431Z,8.60
2024-01-15T13:09:21.338Z,8.50
2024-01-15T13:11:47.974Z,8.10
2024-01-15T13:14:14.592Z,8.30
2024-01-15T13:16:41.278Z,8.30
2024-01-15T13:19:08.105Z,8.30
2024-01-15T13:21:34.813Z,8.30
2024-01-15T13:24:01.479Z,8.50
2024-01-15T13:26:28.189Z,8.40
2024-01-15T13:28:54.853Z,8.40
2024-01-15T13:31:21.578Z,8.30
2024-01-15T13:33:48.339Z,8.60
2024-01-15T13:36:15.231Z,8.80
2024-01-15T13:38:41.955Z,8.90
2024-01-15T13:41:08.597Z,8.60
2024-01-15T13:43:35.216Z,7.90
2024-01-15T13:46:01.977Z,7.90
2024-01-15T13:48:28.696Z,7.80
2024-01-15T13:50:55.381Z,7.80
2024-01-15T13:53:22.125Z,7.70
2024-01-15T13:55:48.798Z,7.80
2024-01-15T13:58:15.429Z,7.60
2024-01-15T14:00:42.159Z,7.20
2024-01-15T14:03:09.040Z,7.30
2024-01-15T14:05:35.815Z,7.20
2024-01-15T14:08:02.491Z,7.40
2024-01-15T14:10:29.180Z,7.40
2024-01-15T14:12:55.970Z,7.00
2024-01-15T14:15:22.830Z,6.90
2024-01-15T14:17:49.557Z,6.90
2024-01-15T14:20:17.927Z,6.90
2024-01-15T14:22:45.870Z,7.10
2024-01-15T14:25:12.554Z,7.10
2024-01-15T14:27:39.237Z,7.30
2024-01-15T14:30:06.028Z,7.20
2024-01-15T14:32:32.732Z,7.20
2024-01-15T14:34:59.566Z,7.10
2024-01-15T14:37:26.402Z,7.10
2024-01-15T14:39:53.037Z,7.30
2024-01-15T14:42:19.702Z,7.30
2024-01-15T14:44:46.393Z,7.40
2024-01-15T14:47:13.023Z,7.20
2024-01-15T14:49:39.732Z,6.90
2024-01-15T14:52:06.544Z,6.60
2024-01-15T14:54:33.192Z,6.50
2024-01-15T14:56:59.831Z,6.50
2024-01-15T14:59:26.516Z,6.70
2024-01-15T15:01:53.198Z,6.50
2024-01-15T15:04:19.865Z,6.60
2024-01-15T15:06:46.623Z,6.60
2024-01-15T15:09:13.497Z,6.70
2024-01-15T15:11:40.253Z,6.60
2024-01-15T15:14:06.945Z,6.70
2024-01-15T15:16:33.624Z,6.70
2024-01-15T15:19:00.427Z,6.70
2024-01-15T15:21:27.240Z,6.50
2024-01-15T15:23:53.853Z,6.30
2024-01-15T15:26:20.478Z,6.50
2024-01-15T15:28:47.189Z,6.60
2024-01-15T15:31:13.789Z,6.60
2024-01-15T15:33:40.706Z,6.40
2024-01-15T15:36:07.578Z,6.50
2024-01-15T15:38:34.222Z,6.50
2024-01-15T15:41:00.902Z,6.40
2024-01-15T15:43:27.629Z,6.20
2024-01-15T15:45:54.353Z,5.90
2024-01-15T15:48:21.109Z,5.90
2024-01-15T15:50:47.871Z,6.00
2024-01-15T15:53:14.653Z,6.20
2024-01-15T15:55:41.346Z,6.10
2024-01-15T15:58:09.299Z,5.90
2024-01-15T16:00:36.330Z,6.00
2024-01-15T16:03:03.154Z,6.00
2024-01-15T16:05:37.983Z,5.90
2024-01-15T16:08:12.013Z,5.90
2024-01-15T16:10:38.700Z,5.90
2024-01-15T16:13:05.414Z,5.70
2024-01-15T16:15:32.112Z,5.00
2024-01-15T16:23:18.191Z,4.80
2024-01-15T16:23:32.604Z,5.10
2024-01-15T16:24:05.839Z,5.30
2024-01-15T16:26:18.742Z,5.30
2024-01-15T16:28:45.706Z,4.90
2024-01-15T16:31:12.327Z,5.00
2024-01-15T16:33:38.966Z,5.10
2024-01-15T16:36:05.684Z,5.00
2024-01-15T16:38:32.428Z,4.80
2024-01-15T16:40:59.172Z,4.90
2024-01-15T16:43:25.976Z,4.90
2024-01-15T16:45:52.619Z,4.90
2024-01-15T16:48:19.415Z,5.10
2024-01-15T16:50:46.348Z,5.20
2024-01-15T16:53:13.060Z,5.20
2024-01-15T16:55:39.735Z,4.90
2024-01-15T16:58:06.433Z,4.80
2024-01-15T17:00:33.054Z,4.90
2024-01-15T17:02:59.853Z,5.10
2024-01-15T17:05:26.649Z,4.50
2024-01-15T17:07:53.351Z,4.40
2024-01-15T17:10:19.963Z,4.70
2024-01-15T17:12:46.654Z,4.80
2024-01-15T17:15:13.308Z,4.90
2024-01-15T17:17:40.063Z,4.80
2024-01-15T17:20:06.789Z,4.90
2024-01-15T17:22:33.436Z,5.00
2024-01-15T17:25:00.070Z,4.90
2024-01-15T17:27:26.848Z,5.10
2024-01-15T17:29:53.472Z,5.20
2024-01-15T17:32:20.114Z,5.20
2024-01-15T17:34:46.788Z,4.80
2024-01-15T17:37:13.414Z,4.10
2024-01-15T17:39:40.058Z,3.60
2024-01-15T17:42:06.752Z,3.90
2024-01-15T17:44:38.600Z,3.80
2024-01-15T17:47:05.443Z,4.00
2024-01-15T17:49:32.517Z,4.30
2024-01-15T17:51:59.138Z,4.40
2024-01-15T17:54:25.785Z,4.30
2024-01-15T17:56:52.502Z,4.30
2024-01-15T17:59:19.137Z,4.20
2024-01-15T18:01:45.789Z,4.30
2024-01-15T18:04:12.546Z,4.50
2024-01-15T18:06:39.237Z,4.80
2024-01-15T18:09:07.092Z,4.80
2024-01-15T18:11:34.795Z,5.00
2024-01-15T18:14:01.454Z,4.60
2024-01-15T18:16:28.091Z,4.40
2024-01-15T18:18:54.850Z,4.40
2024-01-15T18:21:21.540Z,4.40
2024-01-15T18:23:48.217Z,4.40
2024-01-15T18:26:14.921Z,4.50
2024-01-15T18:28:41.561Z,4.40
2024-01-15T18:31:08.190Z,4.40
2024-01-15T18:33:34.938Z,4.60
2024-01-15T18:36:01.613Z,4.60
2024-01-15T18:38:28.285Z,4.40
2024-01-15T18:40:55.050Z,4.40
2024-01-15T18:43:21.680Z,4.60
2024-01-15T18:45:48.295Z,4.70
2024-01-15T18:48:15.060Z,4.60
2024-01-15T18:50:41.822Z,4.00
2024-01-15T18:53:08.586Z,3.30
2024-01-15T18:55:35.282Z,3.60
2024-01-15T18:58:01.888Z,3.70
2024-01-15T19:00:28.519Z,3.90
2024-01-15T19:02:55.360Z,4.00
2024-01-15T19:05:22.134Z,3.90
2024-01-15T19:07:48.823Z,3.30
2024-01-15T19:10:15.497Z,3.20
2024-01-15T19:12:42.112Z,3.20
2024-01-15T19:15:08.862Z,3.20
2024-01-15T19:17:35.595Z,3.20
2024-01-15T19:20:02.341Z,3.00
2024-01-15T19:22:29.000Z,2.80
2024-01-15T19:24:55.684Z,2.80
2024-01-15T19:27:22.287Z,2.80
2024-01-15T19:29:49.027Z,2.90
2024-01-15T19:32:15.718Z,3.00
2024-01-15T19:34:42.370Z,3.00
2024-01-15T19:37:09.005Z,2.80
2024-01-15T19:39:35.665Z,3.00
2024-01-15T19:42:02.274Z,3.00
2024-01-15T19:44:28.998Z,3.10
2024-01-15T19:46:55.785Z,3.10
2024-01-15T19:49:22.416Z,3.20
2024-01-15T19:51:49.060Z,3.20
2024-01-15T19:54:15.763Z,3.00
2024-01-15T19:56:42.564Z,2.90
2024-01-15T19:59:09.320Z,3.00
2024-01-15T20:01:36.078Z,3.10
2024-01-15T20:04:02.713Z,3.00
2024-01-15T20:06:29.407Z,3.00
2024-01-15T20:08:56.189Z,2.80
2024-01-15T20:11:22.851Z,2.10
2024-01-15T20:13:49.697Z,2.10
2024-01-15T20:16:16.425Z,2.00
2024-01-15T20:18:43.266Z,2.10
2024-01-15T20:21:10.019Z,2.00
2024-01-15T20:23:43.099Z,1.30
2024-01-15T20:26:17.365Z,1.70
2024-01-15T20:28:44.083Z,1.10
2024-01-15T20:31:10.718Z,0.80
2024-01-15T20:33:37.537Z,1.30
2024-01-15T20:36:04.324Z,1.30
2024-01-15T20:38:31.051Z,1.40
2024-01-15T20:40:57.704Z,1.60
2024-01-15T20:43:24.383Z,1.80
2024-01-15T20:45:50.993Z,1.70
2024-01-15T20:48:17.650Z,0.80
2024-01-15T20:50:44.491Z,0.90
2024-01-15T20:53:11.236Z,1.30
2024-01-15T20:55:37.894Z,1.00
2024-01-15T20:58:04.640Z,1.20
2024-01-15T21:00:31.282Z,1.10
2024-01-15T21:02:58.035Z,1.20
2024-01-15T21:05:24.916Z,1.40
2024-01-15T21:07:51.682Z,1.50
2024-01-15T21:10:18.384Z,1.40
2024-01-15T21:12:45.124Z,1.40
2024-01-15T21:15:11.746Z,1.20
2024-01-15T21:17:38.455Z,1.20
2024-01-15T21:20:05.227Z,1.20
2024-01-15T21:22:31.894Z,1.10
2024-01-15T21:24:58.528Z,0.80
2024-01-15T21:27:25.250Z,1.10
2024-01-15T21:29:51.935Z,1.20
2024-01-15T21:32:18.601Z,1.00
2024-01-15T21:34:45.301Z,0.90
2024-01-15T21:37:11.952Z,1.00
2024-01-15T21:39:38.602Z,1.10
2024-01-15T21:42:05.483Z,0.70
2024-01-15T21:44:32.127Z,0.50
2024-01-15T21:46:58.744Z,0.60
2024-01-15T21:49:25.496Z,0.40
2024-01-15T21:51:52.191Z,0.70
2024-01-15T21:54:18.822Z,0.70
2024-01-15T21:56:45.551Z,0.60
2024-01-15T21:59:12.310Z,0.30
2024-01-15T22:01:38.969Z,0.20
2024-01-15T22:04:05.677Z,0.20
2024-01-15T22:06:32.381Z,-0.10
2024-01-15T22:08:59.061Z,-0.30
2024-01-15T22:11:25.774Z,-0.10
2024-01-15T22:13:52.432Z,-0.10
2024-01-15T22:16:19.048Z,-0.10
2024-01-15T22:18:45.881Z,0.10
2024-01-15T22:21:12.642Z,0.30
2024-01-15T22:23:39.379Z,0.60
2024-01-15T22:26:06.275Z,0.80
2024-01-15T22:28:32.932Z,0.90
2024-01-15T22:30:59.576Z,1.10
2024-01-15T22:33:26.475Z,1.20
2024-01-15T22:35:53.283Z,1.20
2024-01-15T22:38:19.939Z,1.20
2024-01-15T22:40:46.673Z,1.30
2024-01-15T22:43:13.368Z,1.40
2024-01-15T22:45:40.261Z,1.50
2024-01-15T22:48:07.326Z,1.60
2024-01-15T22:50:34.109Z,1.60
2024-01-15T22:53:00.813Z,1.60
2024-01-15T22:55:27.597Z,1.80
2024-01-15T22:57:54.206Z,1.80
2024-01-15T23:00:20.892Z,1.80
2024-01-15T23:02:47.750Z,1.90
2024-01-15T23:05:14.531Z,1.90
2024-01-15T23:07:41.244Z,2.00
2024-01-15T23:10:07.977Z,2.00
2024-01-15T23:12:34.656Z,1.90
2024-01-15T23:15:01.330Z,2.10
2024-01-15T23:17:28.126Z,2.10
2024-01-15T23:19:54.801Z,2.10
2024-01-15T23:22:21.429Z,1.90
2024-01-15T23:24:48.145Z,1.80
2024-01-15T23:27:14.769Z,1.90
2024-01-15T23:29:41.411Z,2.10
2024-01-15T23:32:08.171Z,2.10
2024-01-15T23:34:34.902Z,2.30
2024-01-15T23:37:01.574Z,2.40
2024-01-15T23:39:28.257Z,2.40
2024-01-15T23:41:54.992Z,2.50
2024-01-15T23:44:21.654Z,2.60
2024-01-15T23:46:48.368Z,2.50
2024-01-15T23:49:15.047Z,2.40
2024-01-15T23:51:41.716Z,2.50
2024-01-15T23:54:08.392Z,2.30
2024-01-15T23:56:35.168Z,2.20
2024-01-15T23:59:01.827Z,2.20
